createdAt,value
2024-01-22T00:00:21.838Z,82.09
2024-01-22T00:02:52.366Z,82.32
2024-01-22T00:05:22.980Z,82.41
2024-01-22T00:07:53.422Z,82.48
2024-01-22T00:10:23.852Z,82.37
2024-01-22T00:12:54.789Z,82.49
2024-01-22T00:15:25.304Z,82.57
2024-01-22T00:17:55.838Z,82.38
2024-01-22T00:20:26.383Z,82.27
2024-01-22T00:22:57.148Z,82.18
2024-01-22T00:25:27.714Z,82.31
2024-01-22T00:27:58.455Z,82.17
2024-01-22T00:30:28.988Z,82.28
2024-01-22T00:33:00.340Z,82.19
2024-01-22T00:35:30.984Z,82.06
2024-01-22T00:38:01.424Z,82.00
2024-01-22T00:40:31.883Z,82.04
2024-01-22T00:43:02.288Z,82.12
2024-01-22T00:45:32.793Z,82.23
2024-01-22T00:48:03.478Z,82.10
2024-01-22T00:50:34.150Z,81.97
2024-01-22T00:53:04.841Z,82.08
2024-01-22T00:55:35.446Z,81.96
2024-01-22T00:58:06.114Z,81.82
2024-01-22T01:00:36.497Z,81.92
2024-01-22T01:03:07.849Z,81.90
2024-01-22T01:05:38.690Z,81.87
2024-01-22T01:08:10.120Z,81.85
2024-01-22T01:10:40.532Z,81.81
2024-01-22T01:13:10.939Z,81.81
2024-01-22T01:15:41.321Z,81.79
2024-01-22T01:18:11.848Z,81.89
2024-01-22T01:20:42.413Z,82.06
2024-01-22T01:23:13.162Z,82.13
2024-01-22T01:25:43.704Z,81.98
2024-01-22T01:28:14.169Z,82.16
2024-01-22T01:30:44.705Z,82.05
2024-01-22T01:33:15.293Z,82.31
2024-01-22T01:35:47.233Z,82.53
2024-01-22T01:38:17.673Z,83.23
2024-01-22T01:40:48.538Z,83.64
2024-01-22T01:43:21.191Z,83.91
2024-01-22T01:45:51.552Z,84.42
2024-01-22T01:48:22.463Z,84.81
2024-01-22T01:50:53.133Z,84.82
2024-01-22T01:53:24.227Z,84.86
2024-01-22T01:55:55.952Z,84.92
2024-01-22T01:58:26.517Z,84.83
2024-01-22T02:00:59.350Z,84.69
2024-01-22T02:03:29.840Z,84.53
2024-01-22T02:06:00.712Z,84.42
2024-01-22T02:08:31.143Z,84.28
2024-01-22T02:11:01.556Z,84.08
2024-01-22T02:13:32.311Z,83.96
2024-01-22T02:16:02.739Z,84.00
2024-01-22T02:18:33.303Z,83.73
2024-01-22T02:21:03.861Z,83.63
2024-01-22T02:23:34.343Z,83.64
2024-01-22T02:26:04.959Z,83.49
2024-01-22T02:28:35.381Z,83.38
2024-01-22T02:31:08.284Z,83.34
2024-01-22T02:33:38.926Z,83.25
2024-01-22T02:36:10.602Z,83.21
2024-01-22T02:38:41.047Z,83.10
2024-01-22T02:41:11.495Z,83.04
2024-01-22T02:43:41.932Z,82.95
2024-01-22T02:46:12.412Z,82.97
2024-01-22T02:48:43.202Z,82.75
2024-01-22T02:51:13.878Z,82.68
2024-01-22T02:53:44.501Z,82.59
2024-01-22T02:56:20.672Z,82.62
2024-01-22T02:58:51.151Z,82.54
2024-01-22T03:01:21.781Z,82.37
2024-01-22T03:03:52.444Z,82.48
2024-01-22T03:06:23.085Z,82.37
2024-01-22T03:08:53.665Z,82.13
2024-01-22T03:11:24.159Z,82.11
2024-01-22T03:13:54.602Z,82.03
2024-01-22T03:16:25.007Z,81.98
2024-01-22T03:18:55.543Z,81.83
2024-01-22T03:21:26.026Z,81.68
2024-01-22T03:23:56.444Z,81.59
2024-01-22T03:26:27.001Z,81.51
2024-01-22T03:28:58.270Z,81.38
2024-01-22T03:31:30.629Z,81.33
2024-01-22T03:34:01.295Z,81.23
2024-01-22T03:36:32.464Z,81.16
2024-01-22T03:39:03.041Z,80.91
2024-01-22T03:41:33.705Z,80.92
2024-01-22T03:44:07.323Z,80.83
2024-01-22T03:46:37.706Z,80.80
2024-01-22T03:49:08.398Z,80.82
2024-01-22T03:51:38.954Z,80.63
2024-01-22T03:54:09.648Z,80.80
2024-01-22T03:56:40.324Z,80.64
2024-01-22T03:59:11.418Z,80.52
2024-01-22T04:01:41.812Z,80.40
2024-01-22T04:04:12.826Z,80.29
2024-01-22T04:06:43.440Z,80.29
2024-01-22T04:09:14.175Z,80.42
2024-01-22T04:11:44.758Z,80.36
2024-01-22T04:14:17.688Z,80.50
2024-01-22T04:16:48.707Z,80.37
2024-01-22T04:19:19.244Z,80.34
2024-01-22T04:21:50.311Z,80.25
2024-01-22T04:24:20.774Z,80.39
2024-01-22T04:26:51.238Z,80.36
2024-01-22T04:29:21.771Z,80.26
2024-01-22T04:31:52.233Z,80.25
2024-01-22T04:34:22.876Z,79.92
2024-01-22T04:36:53.614Z,79.94
2024-01-22T04:39:24.896Z,79.96
2024-01-22T04:41:55.485Z,79.94
2024-01-22T04:44:28.685Z,80.02
2024-01-22T04:46:59.671Z,79.92
2024-01-22T04:49:32.476Z,79.89
2024-01-22T04:52:03.016Z,80.16
2024-01-22T04:54:33.436Z,80.01
2024-01-22T04:57:04.027Z,79.97
2024-01-22T04:59:34.603Z,80.05
2024-01-22T05:02:05.241Z,79.86
2024-01-22T05:04:35.850Z,79.87
2024-01-22T05:07:06.682Z,79.87
2024-01-22T05:09:37.100Z,79.75
2024-01-22T05:12:08.582Z,79.62
2024-01-22T05:14:41.741Z,79.47
2024-01-22T05:17:12.755Z,79.34
2024-01-22T05:19:43.284Z,79.23
2024-01-22T05:22:13.877Z,79.15
2024-01-22T05:24:44.308Z,79.12
2024-01-22T05:27:14.895Z,79.12
2024-01-22T05:29:45.871Z,78.98
2024-01-22T05:32:17.065Z,78.99
2024-01-22T05:34:47.622Z,78.79
2024-01-22T05:37:18.148Z,78.83
2024-01-22T05:39:48.562Z,78.54
2024-01-22T05:42:19.035Z,78.55
2024-01-22T05:44:49.627Z,78.50
2024-01-22T05:47:20.487Z,78.58
2024-01-22T05:49:51.132Z,78.32
2024-01-22T05:52:21.965Z,78.38
2024-01-22T05:54:52.446Z,78.73
2024-01-22T05:57:27.735Z,78.81
2024-01-22T06:00:00.488Z,78.86
2024-01-22T06:02:32.024Z,78.85
2024-01-22T06:05:02.498Z,79.14
2024-01-22T06:07:33.134Z,79.76
2024-01-22T06:10:08.509Z,80.56
2024-01-22T06:12:39.672Z,81.39
2024-01-22T06:15:11.484Z,81.89
2024-01-22T06:17:41.971Z,82.69
2024-01-22T06:20:14.507Z,83.26
2024-01-22T06:22:44.951Z,83.75
2024-01-22T06:25:15.694Z,84.03
2024-01-22T06:27:46.679Z,84.57
2024-01-22T06:30:18.572Z,84.63
2024-01-22T06:32:49.222Z,85.16
2024-01-22T06:35:19.838Z,85.25
2024-01-22T06:37:50.265Z,85.54
2024-01-22T06:40:20.757Z,85.83
2024-01-22T06:42:51.341Z,86.01
2024-01-22T06:45:22.048Z,85.97
2024-01-22T06:47:53.315Z,86.08
2024-01-22T06:50:24.702Z,86.11
2024-01-22T06:52:55.280Z,86.30
2024-01-22T06:55:26.446Z,86.33
2024-01-22T06:57:56.903Z,86.37
2024-01-22T07:00:28.089Z,86.22
2024-01-22T07:03:00.023Z,86.19
2024-01-22T07:05:30.895Z,86.19
2024-01-22T07:08:01.562Z,86.26
2024-01-22T07:10:33.185Z,86.47
2024-01-22T07:13:04.626Z,86.30
2024-01-22T07:15:35.100Z,86.53
2024-01-22T07:18:06.335Z,86.46
2024-01-22T07:20:37.318Z,86.56
2024-01-22T07:23:08.177Z,86.53
2024-01-22T07:25:38.636Z,86.59
2024-01-22T07:28:09.632Z,86.47
2024-01-22T07:30:40.102Z,86.74
2024-01-22T07:33:10.691Z,86.77
2024-01-22T07:35:41.288Z,86.75
2024-01-22T07:38:11.819Z,86.80
2024-01-22T07:40:42.210Z,86.86
2024-01-22T07:43:12.662Z,86.71
2024-01-22T07:45:43.134Z,86.85
2024-01-22T07:48:13.860Z,86.99
2024-01-22T07:50:44.404Z,86.80
2024-01-22T07:53:14.893Z,86.93
2024-01-22T07:55:45.655Z,86.78
2024-01-22T07:58:17.998Z,86.70
2024-01-22T08:00:48.622Z,86.61
2024-01-22T08:03:19.280Z,86.47
2024-01-22T08:05:49.802Z,86.46
2024-01-22T08:08:20.893Z,86.55
2024-01-22T08:10:51.551Z,86.68
2024-01-22T08:13:22.734Z,86.63
2024-01-22T08:15:54.142Z,86.60
2024-01-22T08:18:24.817Z,86.30
2024-01-22T08:20:55.413Z,86.28
2024-01-22T08:23:26.563Z,86.20
2024-01-22T08:25:57.233Z,86.25
2024-01-22T08:28:27.871Z,86.12
2024-01-22T08:30:58.264Z,86.04
2024-01-22T08:33:28.821Z,86.00
2024-01-22T08:35:59.360Z,85.63
2024-01-22T08:38:29.832Z,85.73
2024-01-22T08:41:00.241Z,85.48
2024-01-22T08:43:30.655Z,85.42
2024-01-22T08:46:01.191Z,85.03
2024-01-22T08:48:31.947Z,85.07
2024-01-22T08:51:02.572Z,84.87
2024-01-22T08:53:33.004Z,84.66
2024-01-22T08:56:03.432Z,84.68
2024-01-22T08:58:33.859Z,84.93
2024-01-22T09:01:08.433Z,85.82
2024-01-22T09:03:39.888Z,85.60
2024-01-22T09:06:11.124Z,85.43
2024-01-22T09:08:44.606Z,85.47
2024-01-22T09:11:15.494Z,85.49
2024-01-22T09:13:47.160Z,85.39
2024-01-22T09:16:18.434Z,85.62
2024-01-22T09:18:49.820Z,85.53
2024-01-22T09:21:20.419Z,85.58
2024-01-22T09:23:50.891Z,85.88
2024-01-22T09:26:21.312Z,86.27
2024-01-22T09:28:51.935Z,86.92
2024-01-22T09:31:22.414Z,87.22
2024-01-22T09:33:55.258Z,87.53
2024-01-22T09:36:25.945Z,87.86
2024-01-22T09:38:56.474Z,87.97
2024-01-22T09:41:29.106Z,88.24
2024-01-22T09:43:59.766Z,88.63
2024-01-22T09:46:30.865Z,88.44
2024-01-22T09:49:01.544Z,88.53
2024-01-22T09:51:36.438Z,88.64
2024-01-22T09:54:11.393Z,88.88
2024-01-22T09:56:42.697Z,88.83
2024-01-22T09:59:20.843Z,88.90
2024-01-22T10:01:52.629Z,88.69
2024-01-22T10:04:24.891Z,88.51
2024-01-22T10:06:56.242Z,88.28
2024-01-22T10:09:26.865Z,87.90
2024-01-22T10:11:57.535Z,87.65
2024-01-22T10:14:36.156Z,87.57
2024-01-22T10:17:19.920Z,87.46
2024-01-22T10:19:53.047Z,87.34
2024-01-22T10:22:25.260Z,87.07
2024-01-22T10:25:03.915Z,86.93
2024-01-22T10:27:34.610Z,86.96
2024-01-22T10:30:15.243Z,86.59
2024-01-22T10:32:45.883Z,86.26
2024-01-22T10:35:26.554Z,86.07
2024-01-22T10:38:10.530Z,85.92
2024-01-22T10:40:42.341Z,85.34
2024-01-22T10:43:27.742Z,85.31
2024-01-22T10:46:00.550Z,84.99
2024-01-22T10:48:38.948Z,84.60
2024-01-22T10:51:15.637Z,84.24
2024-01-22T10:53:48.255Z,83.95
2024-01-22T10:56:24.718Z,83.99
2024-01-22T10:59:01.638Z,84.05
2024-01-22T11:01:34.391Z,84.23
2024-01-22T11:04:06.775Z,84.27
2024-01-22T11:06:42.296Z,84.31
2024-01-22T11:09:15.876Z,84.12
2024-01-22T11:11:49.237Z,84.04
2024-01-22T11:14:20.066Z,83.95
2024-01-22T11:16:50.771Z,83.85
2024-01-22T11:19:24.827Z,83.40
2024-01-22T11:21:57.432Z,83.04
2024-01-22T11:24:29.148Z,83.14
2024-01-22T11:27:09.948Z,83.02
2024-01-22T11:29:40.833Z,83.06
2024-01-22T11:32:30.544Z,82.63
2024-01-22T11:35:08.628Z,82.52
2024-01-22T11:37:45.782Z,82.50
2024-01-22T11:40:17.436Z,82.45
2024-01-22T11:42:48.152Z,82.53
2024-01-22T11:45:21.317Z,82.43
2024-01-22T11:47:55.985Z,82.21
2024-01-22T11:50:26.576Z,82.27
2024-01-22T11:53:02.579Z,82.13
2024-01-22T11:55:33.086Z,82.11
2024-01-22T11:58:04.136Z,82.19
2024-01-22T12:00:34.897Z,82.23
2024-01-22T12:03:05.650Z,82.26
2024-01-22T12:05:36.087Z,82.45
2024-01-22T12:08:13.557Z,82.41
2024-01-22T12:10:44.059Z,82.60
2024-01-22T12:13:17.375Z,82.50
2024-01-22T12:15:48.219Z,82.36
2024-01-22T12:18:25.888Z,82.54
2024-01-22T12:20:56.825Z,82.29
2024-01-22T12:23:35.263Z,82.20
2024-01-22T12:26:12.894Z,82.06
2024-01-22T12:28:45.144Z,82.15
2024-01-22T12:31:16.561Z,82.05
2024-01-22T12:33:47.154Z,81.83
2024-01-22T12:36:19.253Z,81.90
2024-01-22T12:38:55.006Z,82.15
2024-01-22T12:41:26.966Z,82.22
2024-01-22T12:43:59.851Z,82.91
2024-01-22T12:46:32.314Z,83.37
2024-01-22T12:49:05.047Z,83.66
2024-01-22T12:51:35.944Z,84.01
2024-01-22T12:54:08.139Z,84.42
2024-01-22T12:56:38.649Z,84.69
2024-01-22T12:59:09.113Z,84.94
2024-01-22T13:01:40.210Z,85.20
2024-01-22T13:04:10.748Z,85.42
2024-01-22T13:06:41.518Z,85.54
2024-01-22T13:09:14.105Z,85.67
2024-01-22T13:11:47.023Z,85.71
2024-01-22T13:14:18.032Z,85.89
2024-01-22T13:16:48.816Z,86.00
2024-01-22T13:19:19.401Z,86.31
2024-01-22T13:21:50.308Z,86.57
2024-01-22T13:24:21.475Z,86.85
2024-01-22T13:26:51.931Z,87.47
2024-01-22T13:29:22.645Z,87.80
2024-01-22T13:31:53.647Z,88.08
2024-01-22T13:34:25.252Z,88.48
2024-01-22T13:36:56.108Z,88.67
2024-01-22T13:39:26.677Z,89.03
2024-01-22T13:41:57.930Z,89.38
2024-01-22T13:44:28.405Z,89.83
2024-01-22T13:47:00.023Z,90.43
2024-01-22T13:49:30.499Z,90.46
2024-01-22T13:52:06.908Z,90.36
2024-01-22T13:54:38.608Z,90.50
2024-01-22T13:57:09.278Z,91.11
2024-01-22T13:59:40.553Z,91.85
2024-01-22T14:02:11.763Z,92.57
2024-01-22T14:04:44.276Z,92.73
2024-01-22T14:07:14.892Z,92.71
2024-01-22T14:09:45.839Z,92.71
2024-01-22T14:12:20.062Z,92.68
2024-01-22T14:14:51.048Z,92.16
2024-01-22T14:17:21.704Z,91.82
2024-01-22T14:19:52.630Z,91.63
2024-01-22T14:22:25.966Z,91.17
2024-01-22T14:24:57.281Z,90.83
2024-01-22T14:27:27.835Z,90.60
2024-01-22T14:29:58.393Z,90.12
2024-01-22T14:32:32.093Z,89.15
2024-01-22T14:35:03.394Z,88.23
2024-01-22T14:37:34.366Z,87.80
2024-01-22T14:40:07.179Z,87.45
2024-01-22T14:42:37.666Z,87.18
2024-01-22T14:45:09.954Z,87.24
2024-01-22T14:47:40.470Z,87.41
2024-01-22T14:50:13.045Z,87.68
2024-01-22T14:52:43.533Z,87.68
2024-01-22T14:55:14.072Z,87.24
2024-01-22T14:57:44.531Z,86.79
2024-01-22T15:00:17.019Z,86.42
2024-01-22T15:02:47.558Z,85.89
2024-01-22T15:05:19.500Z,85.69
2024-01-22T15:07:50.679Z,85.42
2024-01-22T15:10:21.994Z,85.14
2024-01-22T15:12:52.543Z,84.83
2024-01-22T15:15:23.002Z,84.66
2024-01-22T15:17:54.504Z,84.88
2024-01-22T15:20:25.450Z,85.05
2024-01-22T15:22:56.769Z,85.34
2024-01-22T15:25:27.381Z,85.58
2024-01-22T15:27:58.680Z,85.77
2024-01-22T15:30:29.510Z,86.05
2024-01-22T15:33:00.297Z,86.18
2024-01-22T15:35:32.848Z,86.32
2024-01-22T15:38:03.972Z,86.82
2024-01-22T15:40:34.807Z,87.30
2024-01-22T15:43:05.533Z,87.74
2024-01-22T15:45:37.317Z,88.02
2024-01-22T15:48:10.329Z,88.07
2024-01-22T15:50:40.990Z,88.17
2024-01-22T15:53:13.741Z,88.37
2024-01-22T15:55:46.902Z,88.35
2024-01-22T15:58:18.066Z,88.91
2024-01-22T16:00:48.511Z,88.97
2024-01-22T16:03:19.132Z,89.28
2024-01-22T16:05:49.954Z,89.49
2024-01-22T16:08:21.873Z,89.82
2024-01-22T16:10:52.545Z,90.04
2024-01-22T16:13:23.374Z,90.25
2024-01-22T16:15:54.458Z,90.24
2024-01-22T16:18:25.258Z,90.05
2024-01-22T16:20:56.262Z,89.92
2024-01-22T16:23:27.066Z,90.18
2024-01-22T16:25:57.666Z,89.95
2024-01-22T16:28:31.208Z,90.07
2024-01-22T16:31:01.652Z,89.96
2024-01-22T16:33:35.429Z,90.17
2024-01-22T16:36:08.106Z,90.29
2024-01-22T16:38:40.805Z,90.27
2024-01-22T16:41:12.688Z,90.17
2024-01-22T16:43:43.044Z,89.97
2024-01-22T16:46:13.460Z,90.15
2024-01-22T16:48:43.967Z,89.88
2024-01-22T16:51:14.533Z,89.97
2024-01-22T16:53:45.023Z,90.04
2024-01-22T16:56:15.572Z,90.10
2024-01-22T16:58:45.990Z,90.26
2024-01-22T17:01:17.837Z,89.40
2024-01-22T17:03:48.382Z,89.43
2024-01-22T17:06:22.123Z,89.67
2024-01-22T17:08:53.083Z,89.87
2024-01-22T17:11:24.298Z,89.87
2024-01-22T17:13:56.711Z,90.38
2024-01-22T17:16:27.560Z,90.41
2024-01-22T17:18:58.113Z,90.29
2024-01-22T17:21:29.386Z,90.63
2024-01-22T17:24:00.004Z,90.84
2024-01-22T17:26:30.579Z,90.98
2024-01-22T17:29:01.764Z,91.30
2024-01-22T17:31:32.433Z,91.06
2024-01-22T17:34:06.112Z,91.13
2024-01-22T17:36:37.738Z,90.96
2024-01-22T17:39:09.420Z,91.16
2024-01-22T17:41:40.370Z,91.00
2024-01-22T17:44:11.528Z,91.06
2024-01-22T17:46:44.802Z,91.42
2024-01-22T17:49:15.493Z,91.65
2024-01-22T17:51:46.157Z,91.50
2024-01-22T17:54:16.945Z,91.66
2024-01-22T17:56:47.517Z,91.67
2024-01-22T17:59:17.962Z,91.39
2024-01-22T18:01:48.913Z,91.20
2024-01-22T18:04:19.592Z,91.16
2024-01-22T18:06:50.199Z,91.10
2024-01-22T18:09:20.911Z,91.04
2024-01-22T18:11:52.299Z,91.10
2024-01-22T18:14:22.798Z,90.68
2024-01-22T18:16:53.219Z,90.45
2024-01-22T18:19:24.177Z,90.37
2024-01-22T18:21:54.741Z,90.03
2024-01-22T18:24:25.268Z,89.77
2024-01-22T18:26:55.806Z,89.25
2024-01-22T18:29:29.311Z,88.82
2024-01-22T18:32:00.205Z,88.78
2024-01-22T18:34:30.793Z,88.52
2024-01-22T18:37:02.740Z,88.28
2024-01-22T18:39:33.294Z,87.98
2024-01-22T18:42:03.948Z,87.79
2024-01-22T18:44:34.904Z,87.64
2024-01-22T18:47:05.771Z,87.29
2024-01-22T18:49:37.751Z,87.14
2024-01-22T18:52:09.037Z,86.83
2024-01-22T18:54:39.581Z,86.59
2024-01-22T18:57:10.833Z,86.70
2024-01-22T18:59:41.192Z,86.40
2024-01-22T19:02:14.855Z,86.30
2024-01-22T19:04:45.421Z,86.62
2024-01-22T19:07:16.335Z,86.32
2024-01-22T19:09:48.272Z,86.34
2024-01-22T19:12:19.087Z,86.42
2024-01-22T19:14:49.631Z,86.34
2024-01-22T19:17:20.214Z,86.32
2024-01-22T19:19:50.845Z,86.16
2024-01-22T19:22:21.589Z,85.71
2024-01-22T19:24:52.021Z,85.51
2024-01-22T19:27:22.733Z,85.40
2024-01-22T19:29:53.296Z,85.86
2024-01-22T19:32:23.794Z,86.20
2024-01-22T19:34:54.289Z,86.28
2024-01-22T19:37:24.716Z,86.58
2024-01-22T19:39:55.252Z,86.53
2024-01-22T19:42:27.996Z,86.56
2024-01-22T19:44:58.507Z,86.31
2024-01-22T19:47:29.941Z,86.05
2024-01-22T19:50:00.835Z,85.89
2024-01-22T19:52:31.526Z,85.79
2024-01-22T19:55:02.736Z,85.83
2024-01-22T19:57:33.437Z,85.73
2024-01-22T20:00:04.151Z,85.65
2024-01-22T20:02:34.614Z,85.55
2024-01-22T20:05:06.342Z,85.60
2024-01-22T20:07:36.794Z,85.62
2024-01-22T20:10:09.182Z,85.64
2024-01-22T20:12:39.608Z,85.61
2024-01-22T20:15:11.372Z,85.46
2024-01-22T20:17:41.963Z,85.13
2024-01-22T20:20:15.504Z,84.83
2024-01-22T20:22:46.133Z,84.38
2024-01-22T20:25:17.798Z,84.30
2024-01-22T20:27:48.288Z,84.10
2024-01-22T20:30:19.093Z,83.93
2024-01-22T20:32:49.683Z,83.95
2024-01-22T20:35:20.273Z,83.82
2024-01-22T20:37:50.637Z,83.78
2024-01-22T20:40:21.222Z,83.66
2024-01-22T20:42:51.584Z,83.85
2024-01-22T20:45:22.670Z,83.72
2024-01-22T20:47:54.265Z,83.93
2024-01-22T20:50:24.788Z,84.05
2024-01-22T20:52:55.155Z,84.12
2024-01-22T20:55:28.085Z,84.07
2024-01-22T20:57:58.733Z,83.89
2024-01-22T21:00:29.629Z,83.84
2024-01-22T21:03:00.243Z,83.71
2024-01-22T21:05:31.000Z,83.80
2024-01-22T21:08:01.486Z,83.84
2024-01-22T21:10:33.410Z,84.11
2024-01-22T21:13:04.114Z,84.56
2024-01-22T21:15:34.992Z,84.78
2024-01-22T21:18:08.463Z,84.81
2024-01-22T21:20:39.674Z,84.82
2024-01-22T21:23:10.823Z,84.99
2024-01-22T21:25:41.241Z,85.16
2024-01-22T21:28:11.661Z,85.26
2024-01-22T21:30:44.395Z,85.26
2024-01-22T21:33:18.603Z,85.03
2024-01-22T21:35:52.948Z,84.89
2024-01-22T21:38:23.359Z,84.84
2024-01-22T21:40:53.857Z,84.72
2024-01-22T21:43:24.235Z,84.72
2024-01-22T21:45:54.613Z,84.42
2024-01-22T21:48:25.287Z,84.42
2024-01-22T21:50:56.084Z,84.41
2024-01-22T21:53:26.549Z,84.40
2024-01-22T21:55:57.119Z,84.44
2024-01-22T21:58:28.353Z,84.41
2024-01-22T22:00:59.077Z,84.04
2024-01-22T22:03:30.849Z,84.07
2024-01-22T22:06:02.139Z,83.77
2024-01-22T22:08:35.547Z,83.57
2024-01-22T22:11:08.538Z,83.57
2024-01-22T22:13:38.948Z,83.46
2024-01-22T22:16:10.689Z,83.45
2024-01-22T22:18:43.558Z,83.54
2024-01-22T22:21:14.624Z,83.76
2024-01-22T22:23:45.477Z,83.78
2024-01-22T22:26:16.177Z,83.94
2024-01-22T22:28:46.531Z,84.29
2024-01-22T22:31:16.937Z,85.54
2024-01-22T22:33:47.419Z,86.00
2024-01-22T22:36:18.657Z,86.83
2024-01-22T22:38:49.221Z,87.76
2024-01-22T22:41:19.626Z,88.26
2024-01-22T22:43:50.031Z,88.76
2024-01-22T22:46:20.361Z,88.78
2024-01-22T22:48:51.074Z,88.97
2024-01-22T22:51:22.214Z,89.21
2024-01-22T22:53:53.051Z,89.33
2024-01-22T22:56:23.456Z,90.02
2024-01-22T22:58:54.351Z,90.10
2024-01-22T23:01:24.858Z,90.16
2024-01-22T23:03:57.838Z,90.84
2024-01-22T23:06:29.817Z,90.82
2024-01-22T23:09:00.518Z,90.35
2024-01-22T23:11:31.085Z,90.09
2024-01-22T23:14:01.804Z,90.28
2024-01-22T23:16:32.486Z,90.53
2024-01-22T23:19:03.841Z,90.38
2024-01-22T23:21:37.044Z,90.55
2024-01-22T23:24:09.075Z,90.38
2024-01-22T23:26:39.925Z,90.07
2024-01-22T23:29:10.327Z,89.86
2024-01-22T23:31:41.152Z,89.79
2024-01-22T23:34:12.104Z,89.77
2024-01-22T23:36:42.671Z,89.84
2024-01-22T23:39:13.593Z,89.88
2024-01-22T23:41:44.453Z,90.32
2024-01-22T23:44:14.916Z,90.36
2024-01-22T23:46:45.536Z,90.37
2024-01-22T23:49:16.345Z,90.36
2024-01-22T23:51:46.985Z,90.10
2024-01-22T23:54:17.449Z,90.06
2024-01-22T23:56:47.956Z,89.95
2024-01-22T23:59:18.443Z,89.88
